sensor_id;sensor_type;location;lat;lon;timestamp;P1;durP1;ratioP1;P2;durP2;ratioP2
11709;SDS011;5911;51.036;6.972;2022-10-22T00:00:16;7.38;;;4.97;;
11709;SDS011;5911;51.036;6.972;2022-10-22T00:02:44;8.93;;;4.83;;
11709;SDS011;5911;51.036;6.972;2022-10-22T00:05:12;9.25;;;4.10;;
11709;SDS011;5911;51.036;6.972;2022-10-22T00:07:40;8.67;;;4.73;;
11709;SDS011;5911;51.036;6.972;2022-10-22T00:10:08;9.17;;;4.77;;
11709;SDS011;5911;51.036;6.972;2022-10-22T00:12:37;12.93;;;4.37;;
11709;SDS011;5911;51.036;6.972;2022-10-22T00:15:07;12.70;;;4.60;;
11709;SDS011;5911;51.036;6.972;2022-10-22T00:17:35;9.10;;;4.10;;
11709;SDS011;5911;51.036;6.972;2022-10-22T00:20:04;7.67;;;4.40;;
11709;SDS011;5911;51.036;6.972;2022-10-22T00:22:32;10.80;;;4.57;;
11709;SDS011;5911;51.036;6.972;2022-10-22T00:25:00;8.60;;;3.83;;
11709;SDS011;5911;51.036;6.972;2022-10-22T00:27:28;6.03;;;3.75;;
11709;SDS011;5911;51.036;6.972;2022-10-22T00:29:56;6.47;;;3.87;;
11709;SDS011;5911;51.036;6.972;2022-10-22T00:32:25;6.93;;;4.00;;
11709;SDS011;5911;51.036;6.972;2022-10-22T00:34:52;7.93;;;4.23;;
11709;SDS011;5911;51.036;6.972;2022-10-22T00:37:20;9.00;;;4.13;;
11709;SDS011;5911;51.036;6.972;2022-10-22T00:39:48;4.07;;;3.60;;
11709;SDS011;5911;51.036;6.972;2022-10-22T00:42:16;7.70;;;4.53;;
11709;SDS011;5911;51.036;6.972;2022-10-22T00:47:49;9.53;;;4.03;;
11709;SDS011;5911;51.036;6.972;2022-10-22T00:50:22;11.40;;;4.63;;
11709;SDS011;5911;51.036;6.972;2022-10-22T00:52:54;7.07;;;3.90;;
11709;SDS011;5911;51.036;6.972;2022-10-22T00:55:23;10.90;;;4.37;;
11709;SDS011;5911;51.036;6.972;2022-10-22T00:57:53;9.43;;;4.05;;
11709;SDS011;5911;51.036;6.972;2022-10-22T01:00:22;5.93;;;4.07;;
11709;SDS011;5911;51.036;6.972;2022-10-22T01:02:52;12.73;;;4.13;;
11709;SDS011;5911;51.036;6.972;2022-10-22T01:05:20;10.23;;;4.13;;
11709;SDS011;5911;51.036;6.972;2022-10-22T01:07:50;10.23;;;4.00;;
11709;SDS011;5911;51.036;6.972;2022-10-22T01:10:32;6.43;;;3.60;;
11709;SDS011;5911;51.036;6.972;2022-10-22T01:13:17;12.60;;;4.10;;
11709;SDS011;5911;51.036;6.972;2022-10-22T01:15:58;6.47;;;3.63;;
11709;SDS011;5911;51.036;6.972;2022-10-22T01:18:33;6.40;;;4.00;;
11709;SDS011;5911;51.036;6.972;2022-10-22T01:21:09;7.70;;;3.53;;
11709;SDS011;5911;51.036;6.972;2022-10-22T01:27:23;8.17;;;3.90;;
11709;SDS011;5911;51.036;6.972;2022-10-22T01:30:00;7.60;;;3.90;;
11709;SDS011;5911;51.036;6.972;2022-10-22T01:32:32;8.70;;;3.90;;
11709;SDS011;5911;51.036;6.972;2022-10-22T01:35:04;5.72;;;3.50;;
11709;SDS011;5911;51.036;6.972;2022-10-22T01:37:36;8.45;;;4.25;;
11709;SDS011;5911;51.036;6.972;2022-10-22T01:40:08;10.17;;;3.53;;
11709;SDS011;5911;51.036;6.972;2022-10-22T01:42:38;10.20;;;4.10;;
11709;SDS011;5911;51.036;6.972;2022-10-22T01:45:11;4.80;;;4.07;;
11709;SDS011;5911;51.036;6.972;2022-10-22T01:47:42;7.57;;;3.37;;
11709;SDS011;5911;51.036;6.972;2022-10-22T01:50:27;12.57;;;4.20;;
11709;SDS011;5911;51.036;6.972;2022-10-22T01:53:24;12.93;;;4.27;;
11709;SDS011;5911;51.036;6.972;2022-10-22T01:56:02;8.67;;;3.90;;
11709;SDS011;5911;51.036;6.972;2022-10-22T01:58:38;6.43;;;3.70;;
11709;SDS011;5911;51.036;6.972;2022-10-22T02:01:14;6.47;;;3.90;;
11709;SDS011;5911;51.036;6.972;2022-10-22T02:03:51;7.53;;;3.60;;
11709;SDS011;5911;51.036;6.972;2022-10-22T02:06:24;6.23;;;3.83;;
11709;SDS011;5911;51.036;6.972;2022-10-22T02:08:55;6.27;;;3.70;;
11709;SDS011;5911;51.036;6.972;2022-10-22T02:11:24;8.00;;;3.70;;
11709;SDS011;5911;51.036;6.972;2022-10-22T02:13:53;7.57;;;4.40;;
11709;SDS011;5911;51.036;6.972;2022-10-22T02:16:27;6.83;;;3.50;;
11709;SDS011;5911;51.036;6.972;2022-10-22T02:18:58;5.75;;;4.10;;
11709;SDS011;5911;51.036;6.972;2022-10-22T02:21:30;8.98;;;4.57;;
11709;SDS011;5911;51.036;6.972;2022-10-22T02:23:58;8.80;;;4.73;;
11709;SDS011;5911;51.036;6.972;2022-10-22T02:26:27;6.90;;;5.00;;
11709;SDS011;5911;51.036;6.972;2022-10-22T02:29:02;8.07;;;5.40;;
11709;SDS011;5911;51.036;6.972;2022-10-22T02:31:37;9.70;;;5.30;;
11709;SDS011;5911;51.036;6.972;2022-10-22T02:34:09;9.77;;;5.50;;
11709;SDS011;5911;51.036;6.972;2022-10-22T02:36:42;8.57;;;5.43;;
11709;SDS011;5911;51.036;6.972;2022-10-22T02:39:15;10.50;;;6.40;;
11709;SDS011;5911;51.036;6.972;2022-10-22T02:41:45;9.90;;;6.10;;
11709;SDS011;5911;51.036;6.972;2022-10-22T02:44:13;9.67;;;5.50;;
11709;SDS011;5911;51.036;6.972;2022-10-22T02:46:42;10.32;;;5.72;;
11709;SDS011;5911;51.036;6.972;2022-10-22T02:49:10;12.23;;;6.03;;
11709;SDS011;5911;51.036;6.972;2022-10-22T02:51:38;10.63;;;5.67;;
11709;SDS011;5911;51.036;6.972;2022-10-22T02:54:06;11.13;;;5.17;;
11709;SDS011;5911;51.036;6.972;2022-10-22T02:56:34;7.37;;;6.20;;
11709;SDS011;5911;51.036;6.972;2022-10-22T02:59:02;12.83;;;5.20;;
11709;SDS011;5911;51.036;6.972;2022-10-22T03:01:30;9.57;;;5.80;;
11709;SDS011;5911;51.036;6.972;2022-10-22T03:03:59;6.93;;;4.80;;
11709;SDS011;5911;51.036;6.972;2022-10-22T03:06:27;6.13;;;5.33;;
11709;SDS011;5911;51.036;6.972;2022-10-22T03:08:55;8.05;;;4.82;;
11709;SDS011;5911;51.036;6.972;2022-10-22T03:11:23;11.50;;;5.10;;
11709;SDS011;5911;51.036;6.972;2022-10-22T03:13:50;9.63;;;4.90;;
11709;SDS011;5911;51.036;6.972;2022-10-22T03:16:18;7.97;;;4.40;;
11709;SDS011;5911;51.036;6.972;2022-10-22T03:18:46;6.78;;;4.75;;
11709;SDS011;5911;51.036;6.972;2022-10-22T03:21:18;6.57;;;5.13;;
11709;SDS011;5911;51.036;6.972;2022-10-22T03:23:50;5.30;;;4.50;;
11709;SDS011;5911;51.036;6.972;2022-10-22T03:26:18;11.97;;;5.27;;
11709;SDS011;5911;51.036;6.972;2022-10-22T03:28:47;12.83;;;4.83;;
11709;SDS011;5911;51.036;6.972;2022-10-22T03:31:15;8.97;;;5.00;;
11709;SDS011;5911;51.036;6.972;2022-10-22T03:33:43;8.65;;;4.60;;
11709;SDS011;5911;51.036;6.972;2022-10-22T03:36:10;10.33;;;4.27;;
11709;SDS011;5911;51.036;6.972;2022-10-22T03:38:40;9.90;;;4.40;;
11709;SDS011;5911;51.036;6.972;2022-10-22T03:41:08;7.13;;;4.37;;
11709;SDS011;5911;51.036;6.972;2022-10-22T03:43:36;9.40;;;4.77;;
11709;SDS011;5911;51.036;6.972;2022-10-22T03:46:06;9.90;;;4.95;;
11709;SDS011;5911;51.036;6.972;2022-10-22T03:48:33;7.63;;;4.03;;
11709;SDS011;5911;51.036;6.972;2022-10-22T03:51:01;13.37;;;5.00;;
11709;SDS011;5911;51.036;6.972;2022-10-22T03:53:29;15.53;;;4.73;;
11709;SDS011;5911;51.036;6.972;2022-10-22T03:55:58;10.07;;;5.17;;
11709;SDS011;5911;51.036;6.972;2022-10-22T03:58:26;14.43;;;5.53;;
11709;SDS011;5911;51.036;6.972;2022-10-22T04:00:53;10.32;;;5.25;;
11709;SDS011;5911;51.036;6.972;2022-10-22T04:03:21;7.00;;;4.60;;
11709;SDS011;5911;51.036;6.972;2022-10-22T04:05:49;13.73;;;4.83;;
11709;SDS011;5911;51.036;6.972;2022-10-22T04:08:17;7.40;;;4.30;;
11709;SDS011;5911;51.036;6.972;2022-10-22T04:10:49;7.57;;;4.50;;
11709;SDS011;5911;51.036;6.972;2022-10-22T04:13:19;9.50;;;4.37;;
11709;SDS011;5911;51.036;6.972;2022-10-22T04:15:46;8.90;;;4.37;;
11709;SDS011;5911;51.036;6.972;2022-10-22T04:18:14;7.18;;;4.78;;
11709;SDS011;5911;51.036;6.972;2022-10-22T04:20:42;9.20;;;5.23;;
11709;SDS011;5911;51.036;6.972;2022-10-22T04:23:10;8.17;;;5.40;;
11709;SDS011;5911;51.036;6.972;2022-10-22T04:25:38;8.67;;;5.40;;
11709;SDS011;5911;51.036;6.972;2022-10-22T04:28:06;10.63;;;5.57;;
11709;SDS011;5911;51.036;6.972;2022-10-22T04:30:36;8.05;;;5.35;;
11709;SDS011;5911;51.036;6.972;2022-10-22T04:33:03;10.97;;;6.37;;
11709;SDS011;5911;51.036;6.972;2022-10-22T04:35:32;10.53;;;5.33;;
11709;SDS011;5911;51.036;6.972;2022-10-22T04:37:59;9.95;;;6.20;;
11709;SDS011;5911;51.036;6.972;2022-10-22T04:40:27;13.27;;;5.88;;
11709;SDS011;5911;51.036;6.972;2022-10-22T04:42:55;7.57;;;5.27;;
11709;SDS011;5911;51.036;6.972;2022-10-22T04:45:23;9.77;;;6.10;;
11709;SDS011;5911;51.036;6.972;2022-10-22T04:47:52;8.73;;;6.10;;
11709;SDS011;5911;51.036;6.972;2022-10-22T04:50:20;12.07;;;6.57;;
11709;SDS011;5911;51.036;6.972;2022-10-22T04:52:47;6.83;;;5.80;;
11709;SDS011;5911;51.036;6.972;2022-10-22T04:55:15;12.40;;;6.45;;
11709;SDS011;5911;51.036;6.972;2022-10-22T04:57:43;10.73;;;6.30;;
11709;SDS011;5911;51.036;6.972;2022-10-22T05:00:11;9.68;;;6.60;;
11709;SDS011;5911;51.036;6.972;2022-10-22T05:02:39;13.60;;;6.67;;
11709;SDS011;5911;51.036;6.972;2022-10-22T05:05:11;10.43;;;5.80;;
11709;SDS011;5911;51.036;6.972;2022-10-22T05:07:38;8.63;;;6.17;;
11709;SDS011;5911;51.036;6.972;2022-10-22T05:10:07;12.03;;;6.47;;
11709;SDS011;5911;51.036;6.972;2022-10-22T05:12:35;11.23;;;6.83;;
11709;SDS011;5911;51.036;6.972;2022-10-22T05:15:07;11.53;;;6.70;;
11709;SDS011;5911;51.036;6.972;2022-10-22T05:17:35;15.93;;;7.40;;
11709;SDS011;5911;51.036;6.972;2022-10-22T05:20:04;11.03;;;7.40;;
11709;SDS011;5911;51.036;6.972;2022-10-22T05:22:34;11.47;;;7.07;;
11709;SDS011;5911;51.036;6.972;2022-10-22T05:25:02;9.30;;;7.00;;
11709;SDS011;5911;51.036;6.972;2022-10-22T05:27:30;12.67;;;7.20;;
11709;SDS011;5911;51.036;6.972;2022-10-22T05:29:58;7.88;;;6.40;;
11709;SDS011;5911;51.036;6.972;2022-10-22T05:32:26;10.97;;;6.47;;
11709;SDS011;5911;51.036;6.972;2022-10-22T05:34:54;12.57;;;6.67;;
11709;SDS011;5911;51.036;6.972;2022-10-22T05:37:22;11.33;;;6.20;;
11709;SDS011;5911;51.036;6.972;2022-10-22T05:39:52;17.10;;;6.23;;
11709;SDS011;5911;51.036;6.972;2022-10-22T05:42:38;11.93;;;6.00;;
11709;SDS011;5911;51.036;6.972;2022-10-22T05:45:07;9.30;;;6.00;;
11709;SDS011;5911;51.036;6.972;2022-10-22T05:47:35;8.47;;;6.17;;
11709;SDS011;5911;51.036;6.972;2022-10-22T05:50:03;7.87;;;6.73;;
11709;SDS011;5911;51.036;6.972;2022-10-22T05:52:31;11.30;;;6.53;;
11709;SDS011;5911;51.036;6.972;2022-10-22T05:55:01;7.30;;;6.17;;
11709;SDS011;5911;51.036;6.972;2022-10-22T05:57:29;11.90;;;6.70;;
11709;SDS011;5911;51.036;6.972;2022-10-22T05:59:56;18.27;;;7.07;;
11709;SDS011;5911;51.036;6.972;2022-10-22T06:02:26;9.87;;;6.17;;
11709;SDS011;5911;51.036;6.972;2022-10-22T06:04:53;9.70;;;6.17;;
11709;SDS011;5911;51.036;6.972;2022-10-22T06:07:23;8.73;;;6.30;;
11709;SDS011;5911;51.036;6.972;2022-10-22T06:09:51;9.60;;;5.80;;
11709;SDS011;5911;51.036;6.972;2022-10-22T06:12:21;8.27;;;5.80;;
11709;SDS011;5911;51.036;6.972;2022-10-22T06:14:56;8.27;;;5.93;;
11709;SDS011;5911;51.036;6.972;2022-10-22T06:17:27;7.50;;;6.33;;
11709;SDS011;5911;51.036;6.972;2022-10-22T06:20:04;6.43;;;5.57;;
11709;SDS011;5911;51.036;6.972;2022-10-22T06:22:33;9.17;;;6.23;;
11709;SDS011;5911;51.036;6.972;2022-10-22T06:25:01;9.65;;;6.00;;
11709;SDS011;5911;51.036;6.972;2022-10-22T06:27:30;10.03;;;6.70;;
11709;SDS011;5911;51.036;6.972;2022-10-22T06:29:58;9.33;;;6.77;;
11709;SDS011;5911;51.036;6.972;2022-10-22T06:32:26;9.77;;;7.37;;
11709;SDS011;5911;51.036;6.972;2022-10-22T06:34:53;8.67;;;6.50;;
11709;SDS011;5911;51.036;6.972;2022-10-22T06:37:26;10.70;;;6.63;;
11709;SDS011;5911;51.036;6.972;2022-10-22T06:39:53;10.82;;;7.78;;
11709;SDS011;5911;51.036;6.972;2022-10-22T06:42:24;11.30;;;7.40;;
11709;SDS011;5911;51.036;6.972;2022-10-22T06:44:57;11.80;;;7.50;;
11709;SDS011;5911;51.036;6.972;2022-10-22T06:47:24;13.70;;;7.80;;
11709;SDS011;5911;51.036;6.972;2022-10-22T06:49:52;9.50;;;8.10;;
11709;SDS011;5911;51.036;6.972;2022-10-22T06:52:20;9.90;;;7.30;;
11709;SDS011;5911;51.036;6.972;2022-10-22T06:54:48;9.20;;;8.00;;
11709;SDS011;5911;51.036;6.972;2022-10-22T06:57:16;10.13;;;7.90;;
11709;SDS011;5911;51.036;6.972;2022-10-22T06:59:44;11.90;;;7.93;;
11709;SDS011;5911;51.036;6.972;2022-10-22T07:02:14;10.63;;;7.67;;
11709;SDS011;5911;51.036;6.972;2022-10-22T07:04:44;10.07;;;7.90;;
11709;SDS011;5911;51.036;6.972;2022-10-22T07:07:12;11.43;;;7.47;;
11709;SDS011;5911;51.036;6.972;2022-10-22T07:09:40;9.60;;;6.70;;
11709;SDS011;5911;51.036;6.972;2022-10-22T07:12:10;12.40;;;7.47;;
11709;SDS011;5911;51.036;6.972;2022-10-22T07:14:39;12.07;;;7.10;;
11709;SDS011;5911;51.036;6.972;2022-10-22T07:17:06;14.37;;;7.97;;
11709;SDS011;5911;51.036;6.972;2022-10-22T07:19:38;11.63;;;7.70;;
11709;SDS011;5911;51.036;6.972;2022-10-22T07:22:06;10.27;;;7.93;;
11709;SDS011;5911;51.036;6.972;2022-10-22T07:24:37;12.60;;;8.30;;
11709;SDS011;5911;51.036;6.972;2022-10-22T07:27:04;9.70;;;7.50;;
11709;SDS011;5911;51.036;6.972;2022-10-22T07:29:37;11.90;;;7.57;;
11709;SDS011;5911;51.036;6.972;2022-10-22T07:32:05;11.13;;;6.23;;
11709;SDS011;5911;51.036;6.972;2022-10-22T07:34:33;10.90;;;6.67;;
11709;SDS011;5911;51.036;6.972;2022-10-22T07:37:04;12.97;;;7.40;;
11709;SDS011;5911;51.036;6.972;2022-10-22T07:39:33;12.73;;;7.03;;
11709;SDS011;5911;51.036;6.972;2022-10-22T07:42:01;12.03;;;6.67;;
11709;SDS011;5911;51.036;6.972;2022-10-22T07:44:29;11.87;;;6.27;;
11709;SDS011;5911;51.036;6.972;2022-10-22T07:46:57;10.77;;;6.83;;
11709;SDS011;5911;51.036;6.972;2022-10-22T07:49:25;9.17;;;6.93;;
11709;SDS011;5911;51.036;6.972;2022-10-22T07:51:52;12.73;;;6.83;;
11709;SDS011;5911;51.036;6.972;2022-10-22T07:54:23;10.73;;;7.10;;
11709;SDS011;5911;51.036;6.972;2022-10-22T07:56:51;11.55;;;7.07;;
11709;SDS011;5911;51.036;6.972;2022-10-22T07:59:22;10.37;;;5.90;;
11709;SDS011;5911;51.036;6.972;2022-10-22T08:01:50;10.93;;;5.07;;
11709;SDS011;5911;51.036;6.972;2022-10-22T08:04:17;7.10;;;4.70;;
11709;SDS011;5911;51.036;6.972;2022-10-22T08:06:54;6.03;;;4.80;;
11709;SDS011;5911;51.036;6.972;2022-10-22T08:09:26;6.33;;;4.87;;
11709;SDS011;5911;51.036;6.972;2022-10-22T08:11:54;6.43;;;4.70;;
11709;SDS011;5911;51.036;6.972;2022-10-22T08:14:22;5.50;;;4.53;;
11709;SDS011;5911;51.036;6.972;2022-10-22T08:16:50;7.63;;;4.43;;
11709;SDS011;5911;51.036;6.972;2022-10-22T08:19:18;8.77;;;4.17;;
11709;SDS011;5911;51.036;6.972;2022-10-22T08:21:46;11.40;;;4.77;;
11709;SDS011;5911;51.036;6.972;2022-10-22T08:24:14;6.47;;;3.50;;
11709;SDS011;5911;51.036;6.972;2022-10-22T08:26:43;6.70;;;3.60;;
11709;SDS011;5911;51.036;6.972;2022-10-22T08:29:11;7.83;;;3.47;;
11709;SDS011;5911;51.036;6.972;2022-10-22T08:31:39;7.60;;;3.63;;
11709;SDS011;5911;51.036;6.972;2022-10-22T08:34:07;8.73;;;4.37;;
11709;SDS011;5911;51.036;6.972;2022-10-22T08:36:35;6.27;;;3.40;;
11709;SDS011;5911;51.036;6.972;2022-10-22T08:39:03;7.77;;;3.37;;
11709;SDS011;5911;51.036;6.972;2022-10-22T08:41:31;7.90;;;3.55;;
11709;SDS011;5911;51.036;6.972;2022-10-22T08:44:08;5.43;;;2.80;;
11709;SDS011;5911;51.036;6.972;2022-10-22T08:49:47;6.78;;;2.90;;
11709;SDS011;5911;51.036;6.972;2022-10-22T08:52:16;4.40;;;2.77;;
11709;SDS011;5911;51.036;6.972;2022-10-22T08:54:48;7.07;;;2.88;;
11709;SDS011;5911;51.036;6.972;2022-10-22T08:57:22;5.10;;;2.70;;
11709;SDS011;5911;51.036;6.972;2022-10-22T09:00:02;8.10;;;3.60;;
11709;SDS011;5911;51.036;6.972;2022-10-22T09:02:34;6.50;;;3.00;;
11709;SDS011;5911;51.036;6.972;2022-10-22T09:05:15;6.83;;;3.20;;
11709;SDS011;5911;51.036;6.972;2022-10-22T09:07:50;7.97;;;3.33;;
11709;SDS011;5911;51.036;6.972;2022-10-22T09:10:24;5.70;;;2.85;;
11709;SDS011;5911;51.036;6.972;2022-10-22T09:12:55;8.73;;;3.35;;
11709;SDS011;5911;51.036;6.972;2022-10-22T09:15:24;5.25;;;2.95;;
11709;SDS011;5911;51.036;6.972;2022-10-22T09:17:57;10.00;;;3.67;;
11709;SDS011;5911;51.036;6.972;2022-10-22T09:20:33;6.72;;;2.40;;
11709;SDS011;5911;51.036;6.972;2022-10-22T09:23:16;4.17;;;2.80;;
11709;SDS011;5911;51.036;6.972;2022-10-22T09:25:52;6.03;;;2.88;;
11709;SDS011;5911;51.036;6.972;2022-10-22T09:28:20;6.22;;;2.83;;
11709;SDS011;5911;51.036;6.972;2022-10-22T09:30:49;6.43;;;3.20;;
11709;SDS011;5911;51.036;6.972;2022-10-22T09:33:19;7.83;;;3.00;;
11709;SDS011;5911;51.036;6.972;2022-10-22T09:35:52;6.27;;;2.90;;
11709;SDS011;5911;51.036;6.972;2022-10-22T09:38:23;4.70;;;2.00;;
11709;SDS011;5911;51.036;6.972;2022-10-22T09:40:55;6.17;;;2.00;;
11709;SDS011;5911;51.036;6.972;2022-10-22T09:43:26;5.80;;;1.93;;
11709;SDS011;5911;51.036;6.972;2022-10-22T09:45:56;6.55;;;2.10;;
11709;SDS011;5911;51.036;6.972;2022-10-22T09:48:27;6.27;;;2.10;;
11709;SDS011;5911;51.036;6.972;2022-10-22T09:50:58;6.38;;;2.60;;
11709;SDS011;5911;51.036;6.972;2022-10-22T09:53:34;8.53;;;2.20;;
11709;SDS011;5911;51.036;6.972;2022-10-22T09:56:05;5.97;;;1.60;;
11709;SDS011;5911;51.036;6.972;2022-10-22T09:58:40;4.53;;;1.90;;
11709;SDS011;5911;51.036;6.972;2022-10-22T10:01:16;10.85;;;2.13;;
11709;SDS011;5911;51.036;6.972;2022-10-22T10:03:46;7.43;;;1.90;;
11709;SDS011;5911;51.036;6.972;2022-10-22T10:06:17;5.43;;;2.13;;
11709;SDS011;5911;51.036;6.972;2022-10-22T10:08:46;3.60;;;1.77;;
11709;SDS011;5911;51.036;6.972;2022-10-22T10:11:16;4.03;;;2.00;;
11709;SDS011;5911;51.036;6.972;2022-10-22T10:13:58;6.10;;;1.97;;
11709;SDS011;5911;51.036;6.972;2022-10-22T10:16:41;5.10;;;1.77;;
11709;SDS011;5911;51.036;6.972;2022-10-22T10:22:13;4.13;;;1.60;;
11709;SDS011;5911;51.036;6.972;2022-10-22T10:25:13;7.30;;;1.83;;
11709;SDS011;5911;51.036;6.972;2022-10-22T10:27:54;7.27;;;2.00;;
11709;SDS011;5911;51.036;6.972;2022-10-22T10:30:27;7.43;;;1.93;;
11709;SDS011;5911;51.036;6.972;2022-10-22T10:33:11;4.68;;;1.40;;
11709;SDS011;5911;51.036;6.972;2022-10-22T10:35:49;3.10;;;1.63;;
11709;SDS011;5911;51.036;6.972;2022-10-22T10:41:16;5.50;;;2.05;;
11709;SDS011;5911;51.036;6.972;2022-10-22T10:43:53;5.60;;;1.77;;
11709;SDS011;5911;51.036;6.972;2022-10-22T10:46:32;6.80;;;1.60;;
11709;SDS011;5911;51.036;6.972;2022-10-22T10:49:07;5.50;;;2.00;;
11709;SDS011;5911;51.036;6.972;2022-10-22T10:51:37;5.07;;;1.83;;
11709;SDS011;5911;51.036;6.972;2022-10-22T10:54:19;5.37;;;1.50;;
11709;SDS011;5911;51.036;6.972;2022-10-22T10:56:54;5.18;;;1.20;;
11709;SDS011;5911;51.036;6.972;2022-10-22T10:59:28;9.82;;;1.85;;
11709;SDS011;5911;51.036;6.972;2022-10-22T11:02:14;4.95;;;1.48;;
11709;SDS011;5911;51.036;6.972;2022-10-22T11:08:08;4.87;;;1.50;;
11709;SDS011;5911;51.036;6.972;2022-10-22T11:10:56;7.15;;;1.60;;
11709;SDS011;5911;51.036;6.972;2022-10-22T11:13:29;2.67;;;1.17;;
11709;SDS011;5911;51.036;6.972;2022-10-22T11:16:02;3.70;;;1.40;;
11709;SDS011;5911;51.036;6.972;2022-10-22T11:18:36;4.40;;;1.33;;
11709;SDS011;5911;51.036;6.972;2022-10-22T11:21:10;4.00;;;1.45;;
11709;SDS011;5911;51.036;6.972;2022-10-22T11:23:47;4.43;;;1.50;;
11709;SDS011;5911;51.036;6.972;2022-10-22T11:26:24;4.17;;;1.50;;
11709;SDS011;5911;51.036;6.972;2022-10-22T11:28:58;3.10;;;1.55;;
11709;SDS011;5911;51.036;6.972;2022-10-22T11:31:28;6.10;;;1.50;;
11709;SDS011;5911;51.036;6.972;2022-10-22T11:34:03;3.88;;;1.60;;
11709;SDS011;5911;51.036;6.972;2022-10-22T11:36:57;4.37;;;1.27;;
11709;SDS011;5911;51.036;6.972;2022-10-22T11:39:29;4.60;;;1.27;;
11709;SDS011;5911;51.036;6.972;2022-10-22T11:42:01;7.93;;;1.52;;
11709;SDS011;5911;51.036;6.972;2022-10-22T11:44:31;3.57;;;1.33;;
11709;SDS011;5911;51.036;6.972;2022-10-22T11:47:15;3.37;;;1.10;;
11709;SDS011;5911;51.036;6.972;2022-10-22T11:49:53;3.60;;;1.10;;
11709;SDS011;5911;51.036;6.972;2022-10-22T11:52:24;10.67;;;1.63;;
11709;SDS011;5911;51.036;6.972;2022-10-22T11:55:26;3.67;;;1.17;;
11709;SDS011;5911;51.036;6.972;2022-10-22T11:57:58;3.20;;;1.40;;
11709;SDS011;5911;51.036;6.972;2022-10-22T12:00:33;2.90;;;1.27;;
11709;SDS011;5911;51.036;6.972;2022-10-22T12:03:14;3.30;;;1.20;;
11709;SDS011;5911;51.036;6.972;2022-10-22T12:05:43;3.13;;;1.33;;
11709;SDS011;5911;51.036;6.972;2022-10-22T12:08:15;6.10;;;1.42;;
11709;SDS011;5911;51.036;6.972;2022-10-22T12:10:59;3.30;;;0.93;;
11709;SDS011;5911;51.036;6.972;2022-10-22T12:13:32;4.97;;;1.35;;
11709;SDS011;5911;51.036;6.972;2022-10-22T12:16:21;4.40;;;1.33;;
11709;SDS011;5911;51.036;6.972;2022-10-22T12:19:11;4.27;;;1.23;;
11709;SDS011;5911;51.036;6.972;2022-10-22T12:21:43;4.90;;;1.07;;
11709;SDS011;5911;51.036;6.972;2022-10-22T12:24:14;2.63;;;1.30;;
11709;SDS011;5911;51.036;6.972;2022-10-22T12:26:46;2.63;;;1.35;;
11709;SDS011;5911;51.036;6.972;2022-10-22T12:29:24;3.22;;;1.10;;
11709;SDS011;5911;51.036;6.972;2022-10-22T12:31:53;4.45;;;1.50;;
11709;SDS011;5911;51.036;6.972;2022-10-22T12:34:22;3.93;;;1.20;;
11709;SDS011;5911;51.036;6.972;2022-10-22T12:36:51;4.32;;;1.35;;
11709;SDS011;5911;51.036;6.972;2022-10-22T12:39:20;5.57;;;1.10;;
11709;SDS011;5911;51.036;6.972;2022-10-22T12:41:53;2.40;;;0.90;;
11709;SDS011;5911;51.036;6.972;2022-10-22T12:44:21;4.80;;;1.00;;
11709;SDS011;5911;51.036;6.972;2022-10-22T12:46:49;6.53;;;1.37;;
11709;SDS011;5911;51.036;6.972;2022-10-22T12:49:24;4.65;;;1.55;;
11709;SDS011;5911;51.036;6.972;2022-10-22T12:52:02;4.82;;;1.60;;
11709;SDS011;5911;51.036;6.972;2022-10-22T12:54:38;4.55;;;1.23;;
11709;SDS011;5911;51.036;6.972;2022-10-22T12:57:10;2.17;;;0.88;;
11709;SDS011;5911;51.036;6.972;2022-10-22T12:59:41;3.22;;;1.15;;
11709;SDS011;5911;51.036;6.972;2022-10-22T13:02:16;2.33;;;0.90;;
11709;SDS011;5911;51.036;6.972;2022-10-22T13:05:06;3.67;;;1.10;;
11709;SDS011;5911;51.036;6.972;2022-10-22T13:07:48;4.15;;;1.08;;
11709;SDS011;5911;51.036;6.972;2022-10-22T13:10:30;4.68;;;1.58;;
11709;SDS011;5911;51.036;6.972;2022-10-22T13:13:00;4.15;;;1.42;;
11709;SDS011;5911;51.036;6.972;2022-10-22T13:15:33;2.10;;;0.85;;
11709;SDS011;5911;51.036;6.972;2022-10-22T13:18:04;2.92;;;0.95;;
11709;SDS011;5911;51.036;6.972;2022-10-22T13:20:49;3.70;;;1.27;;
11709;SDS011;5911;51.036;6.972;2022-10-22T13:23:19;4.30;;;1.00;;
11709;SDS011;5911;51.036;6.972;2022-10-22T13:25:55;3.43;;;1.20;;
11709;SDS011;5911;51.036;6.972;2022-10-22T13:28:27;2.60;;;1.15;;
11709;SDS011;5911;51.036;6.972;2022-10-22T13:31:07;1.67;;;0.90;;
11709;SDS011;5911;51.036;6.972;2022-10-22T13:33:41;3.63;;;0.98;;
11709;SDS011;5911;51.036;6.972;2022-10-22T13:36:11;5.43;;;1.10;;
11709;SDS011;5911;51.036;6.972;2022-10-22T13:38:41;2.78;;;1.20;;
11709;SDS011;5911;51.036;6.972;2022-10-22T13:41:20;4.82;;;1.10;;
11709;SDS011;5911;51.036;6.972;2022-10-22T13:43:50;3.57;;;1.40;;
11709;SDS011;5911;51.036;6.972;2022-10-22T13:46:25;4.55;;;1.27;;
11709;SDS011;5911;51.036;6.972;2022-10-22T13:49:09;3.97;;;1.10;;
11709;SDS011;5911;51.036;6.972;2022-10-22T13:51:41;2.63;;;1.00;;
11709;SDS011;5911;51.036;6.972;2022-10-22T13:54:09;2.75;;;0.93;;
11709;SDS011;5911;51.036;6.972;2022-10-22T13:56:41;2.65;;;0.80;;
11709;SDS011;5911;51.036;6.972;2022-10-22T13:59:10;5.03;;;1.10;;
11709;SDS011;5911;51.036;6.972;2022-10-22T14:01:38;1.60;;;0.90;;
11709;SDS011;5911;51.036;6.972;2022-10-22T14:04:07;2.45;;;0.95;;
11709;SDS011;5911;51.036;6.972;2022-10-22T14:06:44;1.87;;;0.80;;
11709;SDS011;5911;51.036;6.972;2022-10-22T14:09:13;5.00;;;1.00;;
11709;SDS011;5911;51.036;6.972;2022-10-22T14:11:42;1.63;;;1.02;;
11709;SDS011;5911;51.036;6.972;2022-10-22T14:14:14;1.80;;;0.95;;
11709;SDS011;5911;51.036;6.972;2022-10-22T14:16:42;2.03;;;0.95;;
11709;SDS011;5911;51.036;6.972;2022-10-22T14:19:12;2.00;;;1.00;;
11709;SDS011;5911;51.036;6.972;2022-10-22T14:21:42;2.90;;;0.90;;
11709;SDS011;5911;51.036;6.972;2022-10-22T14:24:10;5.65;;;1.98;;
11709;SDS011;5911;51.036;6.972;2022-10-22T14:26:39;4.75;;;0.98;;
11709;SDS011;5911;51.036;6.972;2022-10-22T14:29:07;2.75;;;1.08;;
11709;SDS011;5911;51.036;6.972;2022-10-22T14:31:38;4.90;;;1.10;;
11709;SDS011;5911;51.036;6.972;2022-10-22T14:34:09;3.72;;;1.08;;
11709;SDS011;5911;51.036;6.972;2022-10-22T14:36:37;4.30;;;0.90;;
11709;SDS011;5911;51.036;6.972;2022-10-22T14:39:05;3.13;;;1.00;;
11709;SDS011;5911;51.036;6.972;2022-10-22T14:41:33;2.00;;;0.90;;
11709;SDS011;5911;51.036;6.972;2022-10-22T14:44:01;3.05;;;0.95;;
11709;SDS011;5911;51.036;6.972;2022-10-22T14:46:29;2.67;;;0.82;;
11709;SDS011;5911;51.036;6.972;2022-10-22T14:48:58;1.95;;;0.98;;
11709;SDS011;5911;51.036;6.972;2022-10-22T14:51:25;2.35;;;1.05;;
11709;SDS011;5911;51.036;6.972;2022-10-22T14:53:53;1.83;;;1.00;;
11709;SDS011;5911;51.036;6.972;2022-10-22T14:56:21;3.20;;;1.05;;
11709;SDS011;5911;51.036;6.972;2022-10-22T14:58:49;4.85;;;1.40;;
11709;SDS011;5911;51.036;6.972;2022-10-22T15:01:18;1.85;;;1.17;;
11709;SDS011;5911;51.036;6.972;2022-10-22T15:03:46;2.30;;;1.25;;
11709;SDS011;5911;51.036;6.972;2022-10-22T15:06:16;1.83;;;1.00;;
11709;SDS011;5911;51.036;6.972;2022-10-22T15:08:43;2.55;;;1.13;;
11709;SDS011;5911;51.036;6.972;2022-10-22T15:11:11;4.30;;;1.48;;
11709;SDS011;5911;51.036;6.972;2022-10-22T15:13:39;2.35;;;1.00;;
11709;SDS011;5911;51.036;6.972;2022-10-22T15:16:08;3.03;;;1.23;;
11709;SDS011;5911;51.036;6.972;2022-10-22T15:18:37;3.90;;;1.25;;
11709;SDS011;5911;51.036;6.972;2022-10-22T15:21:05;4.13;;;1.40;;
11709;SDS011;5911;51.036;6.972;2022-10-22T15:23:44;4.30;;;1.40;;
11709;SDS011;5911;51.036;6.972;2022-10-22T15:26:12;4.35;;;1.10;;
11709;SDS011;5911;51.036;6.972;2022-10-22T15:28:40;4.43;;;1.48;;
11709;SDS011;5911;51.036;6.972;2022-10-22T15:31:09;4.35;;;1.63;;
11709;SDS011;5911;51.036;6.972;2022-10-22T15:33:40;5.03;;;1.92;;
11709;SDS011;5911;51.036;6.972;2022-10-22T15:36:08;4.68;;;1.65;;
11709;SDS011;5911;51.036;6.972;2022-10-22T15:38:37;5.70;;;1.75;;
11709;SDS011;5911;51.036;6.972;2022-10-22T15:41:07;3.22;;;1.00;;